Terminal Aerodrome Forecast
Issued by NWS Cleveland, OH

Home | Current Version | Previous Version | Graphics & Text | Print | Product List | Glossary On
Versions: 1 2 3 4 5 6 7 8 9 10 11 12 13 14 15 16
033
FTUS41 KCLE 260532
TAFCAK
TAF
KCAK 260532Z 2606/2706 14007KT P6SM FEW250
     FM261800 16010G18KT P6SM SCT250
     FM270000 17010KT P6SM SCT250=

USA.gov is the U.S. government's official web portal to all federal, state and local government web resources and services.